createdAt,value
2018-12-20T00:02:23.206Z,49.77
2018-12-20T00:05:27.837Z,47.37
2018-12-20T00:08:32.543Z,46.07
2018-12-20T00:11:37.554Z,47.37
2018-12-20T00:14:42.445Z,53.03
2018-12-20T00:17:49.817Z,51.70
2018-12-20T00:20:54.586Z,51.63
2018-12-20T00:23:59.185Z,51.83
2018-12-20T00:27:03.739Z,59.70
2018-12-20T00:30:08.529Z,44.03
2018-12-20T00:33:14.509Z,52.93
2018-12-20T00:36:19.172Z,53.53
2018-12-20T00:39:23.974Z,48.37
2018-12-20T00:42:28.671Z,48.13
2018-12-20T00:45:33.386Z,47.40
2018-12-20T00:48:37.942Z,48.40
2018-12-20T00:51:42.754Z,49.17
2018-12-20T00:54:47.443Z,49.90
2018-12-20T00:57:52.069Z,50.37
2018-12-20T01:00:57.075Z,53.83
2018-12-20T01:04:01.693Z,53.70
2018-12-20T01:07:12.534Z,52.83
2018-12-20T01:10:17.033Z,53.73
2018-12-20T01:13:21.658Z,57.23
2018-12-20T01:16:26.475Z,53.23
2018-12-20T01:19:31.242Z,53.00
2018-12-20T01:22:35.959Z,52.67
2018-12-20T01:25:40.590Z,50.37
2018-12-20T01:28:45.134Z,51.03
2018-12-20T01:31:49.850Z,53.17
2018-12-20T01:34:54.549Z,56.90
2018-12-20T01:37:59.192Z,60.13
2018-12-20T01:41:03.802Z,52.80
2018-12-20T01:44:08.449Z,54.77
2018-12-20T01:47:13.167Z,49.77
2018-12-20T01:50:17.823Z,56.50
2018-12-20T01:53:22.583Z,56.50
2018-12-20T01:56:27.202Z,54.40
2018-12-20T01:59:31.822Z,57.63
2018-12-20T02:02:36.850Z,57.17
2018-12-20T02:05:41.605Z,57.47
2018-12-20T02:08:46.200Z,54.87
2018-12-20T02:11:50.892Z,54.87
2018-12-20T02:15:01.597Z,50.97
2018-12-20T02:18:02.085Z,59.83
2018-12-20T02:21:06.831Z,53.87
2018-12-20T02:24:11.591Z,55.13
2018-12-20T02:27:16.354Z,56.97
2018-12-20T02:30:21.238Z,49.60
2018-12-20T02:33:26.051Z,54.97
2018-12-20T02:36:30.771Z,54.90
2018-12-20T02:39:35.599Z,54.43
2018-12-20T02:42:40.358Z,54.30
2018-12-20T02:45:44.940Z,57.27
2018-12-20T02:48:49.505Z,57.40
2018-12-20T02:51:54.217Z,54.53
2018-12-20T02:54:58.954Z,58.87
2018-12-20T02:58:03.940Z,51.67
2018-12-20T03:01:08.868Z,52.73
2018-12-20T03:04:13.514Z,55.20
2018-12-20T03:07:18.354Z,51.67
2018-12-20T03:10:23.043Z,52.20
2018-12-20T03:13:29.680Z,61.33
2018-12-20T03:16:34.686Z,54.37
2018-12-20T03:19:39.564Z,52.90
2018-12-20T03:22:44.408Z,53.60
2018-12-20T03:25:49.106Z,54.33
2018-12-20T03:28:53.633Z,51.33
2018-12-20T03:31:58.348Z,52.20
2018-12-20T03:35:03.055Z,47.07
2018-12-20T03:38:07.650Z,47.90
2018-12-20T03:41:12.407Z,46.23
2018-12-20T03:44:17.263Z,46.30
2018-12-20T03:47:22.089Z,47.33
2018-12-20T03:50:26.807Z,45.73
2018-12-20T03:53:31.491Z,48.57
2018-12-20T03:56:36.199Z,51.47
2018-12-20T03:59:41.552Z,49.20
2018-12-20T04:02:46.378Z,49.50
2018-12-20T04:05:51.398Z,46.17
2018-12-20T04:08:56.193Z,49.23
2018-12-20T04:12:00.839Z,51.13
2018-12-20T04:15:05.741Z,50.33
2018-12-20T04:18:10.442Z,51.73
2018-12-20T04:21:15.052Z,54.63
2018-12-20T04:24:19.696Z,48.80
2018-12-20T04:27:24.216Z,52.77
2018-12-20T04:30:28.928Z,49.13
2018-12-20T04:33:33.574Z,49.37
2018-12-20T04:36:38.683Z,50.67
2018-12-20T04:39:43.458Z,52.23
2018-12-20T04:42:48.100Z,54.43
2018-12-20T04:45:52.992Z,51.23
2018-12-20T04:48:57.811Z,56.37
2018-12-20T04:52:02.736Z,60.00
2018-12-20T04:55:07.624Z,63.57
2018-12-20T04:58:12.404Z,52.93
2018-12-20T05:01:17.068Z,66.70
2018-12-20T05:04:21.767Z,58.17
2018-12-20T05:07:26.431Z,57.77
2018-12-20T05:10:31.027Z,56.63
2018-12-20T05:13:35.689Z,54.93
2018-12-20T05:16:40.513Z,58.30
2018-12-20T05:19:46.317Z,62.50
2018-12-20T05:22:51.051Z,60.27
2018-12-20T05:25:55.829Z,62.27
2018-12-20T05:29:00.485Z,69.93
2018-12-20T05:32:05.168Z,75.23
2018-12-20T05:35:10.166Z,80.83
2018-12-20T05:38:15.168Z,85.77
2018-12-20T05:41:19.869Z,106.97
2018-12-20T05:44:24.412Z,82.60
2018-12-20T05:47:28.896Z,93.43
2018-12-20T05:50:33.490Z,127.97
2018-12-20T05:53:38.317Z,128.53
2018-12-20T05:56:43.096Z,112.13
2018-12-20T05:59:47.851Z,105.20
2018-12-20T06:02:52.525Z,97.53
2018-12-20T06:05:57.317Z,116.20
2018-12-20T06:09:02.249Z,117.90
2018-12-20T06:12:07.068Z,118.77
2018-12-20T06:15:11.747Z,119.47
2018-12-20T06:18:16.733Z,107.87
2018-12-20T06:21:21.576Z,107.30
2018-12-20T06:24:26.210Z,104.50
2018-12-20T06:27:30.858Z,102.70
2018-12-20T06:30:35.424Z,119.07
2018-12-20T06:33:40.066Z,117.77
2018-12-20T06:36:44.710Z,112.40
2018-12-20T06:39:49.302Z,108.20
2018-12-20T06:42:53.912Z,98.63
2018-12-20T06:45:58.601Z,93.47
2018-12-20T06:49:03.278Z,89.43
2018-12-20T06:52:07.919Z,91.23
2018-12-20T06:55:12.504Z,95.83
2018-12-20T06:58:17.124Z,71.00
2018-12-20T07:01:21.677Z,81.73
2018-12-20T07:04:26.207Z,94.03
2018-12-20T07:07:30.665Z,99.40
2018-12-20T07:10:35.362Z,91.53
2018-12-20T07:13:39.851Z,97.70
2018-12-20T07:16:44.475Z,103.73
2018-12-20T07:19:49.066Z,122.80
2018-12-20T07:22:53.898Z,115.87
2018-12-20T07:25:58.533Z,102.90
2018-12-20T07:29:03.185Z,114.03
2018-12-20T07:32:07.715Z,116.40
2018-12-20T07:35:12.280Z,121.07
2018-12-20T07:38:17.723Z,115.47
2018-12-20T07:41:22.310Z,121.17
2018-12-20T07:44:27.021Z,128.07
2018-12-20T07:47:31.624Z,130.00
2018-12-20T07:50:36.226Z,136.07
2018-12-20T07:53:40.830Z,140.97
2018-12-20T07:56:45.428Z,141.43
2018-12-20T07:59:49.960Z,141.77
2018-12-20T08:02:54.538Z,142.03
2018-12-20T08:05:59.085Z,142.57
2018-12-20T08:09:04.585Z,135.73
2018-12-20T08:12:09.135Z,141.40
2018-12-20T08:15:13.810Z,128.80
2018-12-20T08:18:18.429Z,136.60
2018-12-20T08:21:22.955Z,125.63
2018-12-20T08:24:27.551Z,110.57
2018-12-20T08:27:32.941Z,120.17
2018-12-20T08:30:37.541Z,117.43
2018-12-20T08:33:42.134Z,118.20
2018-12-20T08:36:46.763Z,124.30
2018-12-20T08:39:51.448Z,120.63
2018-12-20T08:42:56.331Z,127.20
2018-12-20T08:46:00.989Z,131.90
2018-12-20T08:49:05.699Z,121.47
2018-12-20T08:52:10.289Z,122.13
2018-12-20T08:55:14.991Z,130.73
2018-12-20T08:58:19.561Z,102.83
2018-12-20T09:01:24.178Z,117.60
2018-12-20T09:04:28.783Z,118.93
2018-12-20T09:07:33.362Z,134.73
2018-12-20T09:10:37.870Z,122.70
2018-12-20T09:13:42.447Z,117.17
2018-12-20T09:16:47.180Z,117.80
2018-12-20T09:19:51.960Z,128.40
2018-12-20T09:22:56.714Z,134.17
2018-12-20T09:26:01.308Z,126.13
2018-12-20T09:29:06.121Z,117.37
2018-12-20T09:32:10.741Z,146.07
2018-12-20T09:35:15.410Z,113.43
2018-12-20T09:38:19.952Z,97.53
2018-12-20T09:41:24.621Z,98.10
2018-12-20T09:44:29.395Z,101.40
2018-12-20T09:47:39.150Z,106.03
2018-12-20T09:50:43.795Z,102.10
2018-12-20T09:53:48.484Z,108.87
2018-12-20T09:56:54.255Z,94.47
2018-12-20T09:59:58.953Z,92.30
2018-12-20T10:03:03.632Z,92.30
2018-12-20T10:06:09.397Z,93.97
2018-12-20T10:09:13.875Z,89.23
2018-12-20T10:12:18.575Z,83.47
2018-12-20T10:15:23.166Z,98.13
2018-12-20T10:18:27.879Z,102.53
2018-12-20T10:21:32.549Z,102.77
2018-12-20T10:24:37.247Z,101.73
2018-12-20T10:27:42.037Z,104.17
2018-12-20T10:30:47.560Z,98.30
2018-12-20T10:33:52.175Z,101.07
2018-12-20T10:36:56.741Z,101.80
2018-12-20T10:40:01.338Z,83.43
2018-12-20T10:43:05.888Z,72.53
2018-12-20T10:46:10.482Z,87.47
2018-12-20T10:49:15.186Z,85.60
2018-12-20T10:52:19.881Z,89.63
2018-12-20T10:55:24.562Z,97.80
2018-12-20T10:58:29.351Z,88.90
2018-12-20T11:01:38.927Z,94.63
2018-12-20T11:04:48.623Z,107.23
2018-12-20T11:08:00.446Z,83.90
2018-12-20T11:11:09.407Z,90.87
2018-12-20T11:14:14.013Z,87.70
2018-12-20T11:17:18.678Z,90.03
2018-12-20T11:20:23.316Z,84.43
2018-12-20T11:23:27.941Z,96.23
2018-12-20T11:26:32.526Z,95.57
2018-12-20T11:29:37.177Z,96.97
2018-12-20T11:32:41.690Z,108.23
2018-12-20T11:35:46.245Z,96.63
2018-12-20T11:38:50.883Z,100.03
2018-12-20T11:41:55.613Z,112.10
2018-12-20T11:45:00.318Z,105.73
2018-12-20T11:48:04.933Z,106.27
2018-12-20T11:51:09.581Z,102.50
2018-12-20T11:54:14.370Z,104.63
2018-12-20T11:57:18.988Z,106.73
2018-12-20T12:00:23.537Z,109.80
2018-12-20T12:03:28.197Z,114.20
2018-12-20T12:06:32.815Z,112.50
2018-12-20T12:09:37.443Z,108.10
2018-12-20T12:12:42.134Z,107.43
2018-12-20T12:15:46.819Z,105.63
2018-12-20T12:18:51.497Z,89.83
2018-12-20T12:21:56.201Z,86.07
2018-12-20T12:25:00.755Z,86.93
2018-12-20T12:28:05.372Z,86.97
2018-12-20T12:31:10.003Z,90.73
2018-12-20T12:34:14.652Z,97.50
2018-12-20T12:37:19.425Z,91.87
2018-12-20T12:40:24.204Z,103.77
2018-12-20T12:43:28.873Z,101.07
2018-12-20T12:46:33.407Z,103.60
2018-12-20T12:49:38.205Z,96.93
2018-12-20T12:52:42.751Z,99.80
2018-12-20T12:55:47.491Z,104.70
2018-12-20T12:58:52.118Z,105.67
2018-12-20T13:01:56.782Z,99.87
2018-12-20T13:05:01.269Z,89.73
2018-12-20T13:08:05.982Z,105.17
2018-12-20T13:11:10.493Z,82.07
2018-12-20T13:14:15.068Z,78.93
2018-12-20T13:17:19.709Z,85.77
2018-12-20T13:20:24.278Z,92.33
2018-12-20T13:23:28.856Z,85.83
2018-12-20T13:26:33.527Z,84.50
2018-12-20T13:29:38.106Z,84.50
2018-12-20T13:32:42.734Z,81.60
2018-12-20T13:35:47.310Z,106.33
2018-12-20T13:38:51.886Z,80.87
2018-12-20T13:41:56.550Z,86.07
2018-12-20T13:45:01.142Z,81.07
2018-12-20T13:48:05.680Z,68.40
2018-12-20T13:51:10.342Z,80.07
2018-12-20T13:54:15.014Z,72.20
2018-12-20T13:57:19.637Z,74.03
2018-12-20T14:00:24.230Z,85.23
2018-12-20T14:03:28.779Z,95.17
2018-12-20T14:06:33.466Z,82.40
2018-12-20T14:09:37.935Z,79.70
2018-12-20T14:12:42.501Z,116.63
2018-12-20T14:15:47.145Z,112.43
2018-12-20T14:18:51.693Z,91.97
2018-12-20T14:21:56.319Z,112.67
2018-12-20T14:25:00.855Z,90.07
2018-12-20T14:28:05.388Z,88.50
2018-12-20T14:31:10.071Z,102.30
2018-12-20T14:34:14.621Z,85.50
2018-12-20T14:37:19.157Z,91.70
2018-12-20T14:40:23.773Z,100.63
2018-12-20T14:43:28.540Z,100.33
2018-12-20T14:46:33.139Z,92.43
2018-12-20T14:49:37.785Z,91.40
2018-12-20T14:52:42.458Z,103.27
2018-12-20T14:55:47.116Z,103.40
2018-12-20T14:58:51.678Z,93.93
2018-12-20T15:01:56.296Z,173.60
2018-12-20T15:05:00.850Z,108.43
2018-12-20T15:08:05.567Z,117.57
2018-12-20T15:11:10.223Z,107.57
2018-12-20T15:14:14.825Z,105.77
2018-12-20T15:17:19.393Z,94.67
2018-12-20T15:20:24.070Z,104.63
2018-12-20T15:23:28.707Z,94.43
2018-12-20T15:26:33.245Z,104.27
2018-12-20T15:29:37.815Z,84.03
2018-12-20T15:32:42.434Z,69.63
2018-12-20T15:35:47.237Z,62.30
2018-12-20T15:38:51.782Z,70.97
2018-12-20T15:41:56.397Z,149.53
2018-12-20T15:45:01.140Z,62.80
2018-12-20T15:48:05.897Z,63.00
2018-12-20T15:51:10.550Z,193.37
2018-12-20T15:54:15.223Z,136.93
2018-12-20T15:57:19.880Z,217.73
2018-12-20T16:00:24.767Z,82.53
2018-12-20T16:03:29.431Z,71.27
2018-12-20T16:06:34.036Z,79.20
2018-12-20T16:09:38.688Z,82.13
2018-12-20T16:12:43.383Z,73.87
2018-12-20T16:15:48.225Z,87.77
2018-12-20T16:18:52.898Z,90.10
2018-12-20T16:21:57.621Z,86.57
2018-12-20T16:25:02.267Z,89.43
2018-12-20T16:28:06.890Z,72.57
2018-12-20T16:31:11.603Z,83.43
2018-12-20T16:34:16.303Z,81.10
2018-12-20T16:37:20.903Z,74.27
2018-12-20T16:40:25.521Z,112.10
2018-12-20T16:43:30.098Z,138.20
2018-12-20T16:46:34.688Z,83.73
2018-12-20T16:49:39.263Z,80.57
2018-12-20T16:52:43.781Z,111.87
2018-12-20T16:55:50.265Z,110.07
2018-12-20T16:58:55.129Z,91.80
2018-12-20T17:01:59.745Z,88.13
2018-12-20T17:05:04.557Z,85.90
2018-12-20T17:08:09.121Z,94.97
2018-12-20T17:11:13.748Z,95.07
2018-12-20T17:14:18.419Z,92.67
2018-12-20T17:17:23.214Z,85.73
2018-12-20T17:20:27.822Z,119.00
2018-12-20T17:23:35.672Z,122.47
2018-12-20T17:26:39.078Z,93.03
2018-12-20T17:29:43.731Z,84.50
2018-12-20T17:32:48.509Z,95.93
2018-12-20T17:35:53.204Z,122.77
2018-12-20T17:38:59.169Z,115.63
2018-12-20T17:42:04.050Z,90.47
2018-12-20T17:45:09.352Z,100.83
2018-12-20T17:48:14.063Z,112.80
2018-12-20T17:51:18.629Z,101.53
2018-12-20T17:54:23.381Z,101.40
2018-12-20T17:57:28.210Z,84.57
2018-12-20T18:00:33.013Z,84.53
2018-12-20T18:03:37.699Z,90.90
2018-12-20T18:06:42.332Z,93.27
2018-12-20T18:09:47.005Z,84.10
2018-12-20T18:12:51.497Z,76.87
2018-12-20T18:15:56.360Z,81.53
2018-12-20T18:19:01.238Z,83.00
2018-12-20T18:22:05.962Z,80.87
2018-12-20T18:25:10.752Z,77.10
2018-12-20T18:28:16.573Z,78.70
2018-12-20T18:31:21.443Z,81.53
2018-12-20T18:34:26.065Z,83.47
2018-12-20T18:37:30.585Z,89.70
2018-12-20T18:40:35.202Z,117.20
2018-12-20T18:43:40.046Z,90.70
2018-12-20T18:46:44.658Z,92.17
2018-12-20T18:49:49.272Z,89.70
2018-12-20T18:52:53.968Z,89.30
2018-12-20T18:55:58.581Z,84.80
2018-12-20T18:59:03.226Z,93.07
2018-12-20T19:02:09.019Z,93.13
2018-12-20T19:05:13.698Z,98.57
2018-12-20T19:08:18.480Z,107.30
2018-12-20T19:11:23.258Z,97.97
2018-12-20T19:14:27.921Z,90.73
2018-12-20T19:17:32.448Z,93.03
2018-12-20T19:20:37.173Z,96.17
2018-12-20T19:23:41.859Z,97.10
2018-12-20T19:26:46.498Z,100.37
2018-12-20T19:29:51.152Z,106.30
2018-12-20T19:32:55.735Z,100.77
2018-12-20T19:36:00.474Z,88.17
2018-12-20T19:39:08.147Z,100.10
2018-12-20T19:42:15.289Z,89.10
2018-12-20T19:45:19.969Z,89.67
2018-12-20T19:48:24.588Z,98.10
2018-12-20T19:51:29.287Z,93.63
2018-12-20T19:54:34.055Z,100.30
2018-12-20T19:57:38.750Z,87.23
2018-12-20T20:00:43.321Z,91.00
2018-12-20T20:03:47.832Z,91.20
2018-12-20T20:06:52.464Z,96.97
2018-12-20T20:09:57.098Z,78.57
2018-12-20T20:13:01.759Z,82.13
2018-12-20T20:16:06.396Z,83.60
2018-12-20T20:19:10.901Z,100.23
2018-12-20T20:22:15.444Z,88.43
2018-12-20T20:25:20.058Z,88.40
2018-12-20T20:28:24.807Z,85.70
2018-12-20T20:31:29.587Z,92.93
2018-12-20T20:34:34.291Z,89.97
2018-12-20T20:37:38.857Z,96.10
2018-12-20T20:40:44.544Z,98.87
2018-12-20T20:43:49.128Z,95.27
2018-12-20T20:46:53.712Z,100.10
2018-12-20T20:49:58.325Z,103.13
2018-12-20T20:53:02.974Z,87.40
2018-12-20T20:56:07.587Z,87.20
2018-12-20T20:59:12.202Z,125.03
2018-12-20T21:02:16.836Z,93.87
2018-12-20T21:05:21.373Z,184.33
2018-12-20T21:08:25.991Z,100.17
2018-12-20T21:11:30.581Z,95.80
2018-12-20T21:14:35.294Z,114.93
2018-12-20T21:17:40.242Z,80.90
2018-12-20T21:20:44.723Z,87.10
2018-12-20T21:23:49.553Z,88.63
2018-12-20T21:26:54.109Z,100.03
2018-12-20T21:29:58.684Z,82.03
2018-12-20T21:33:03.246Z,89.07
2018-12-20T21:36:07.744Z,89.67
2018-12-20T21:39:12.319Z,85.23
2018-12-20T21:42:16.905Z,92.17
2018-12-20T21:45:23.000Z,87.70
2018-12-20T21:48:27.764Z,95.30
2018-12-20T21:51:32.574Z,100.30
2018-12-20T21:54:38.155Z,84.83
2018-12-20T21:57:42.862Z,88.67
2018-12-20T22:00:47.479Z,88.93
2018-12-20T22:03:52.182Z,84.37
2018-12-20T22:06:56.863Z,86.03
2018-12-20T22:10:01.531Z,88.70
2018-12-20T22:13:06.148Z,89.33
2018-12-20T22:16:10.634Z,96.70
2018-12-20T22:19:15.262Z,94.10
2018-12-20T22:22:19.934Z,100.73
2018-12-20T22:25:24.570Z,91.83
2018-12-20T22:28:29.186Z,104.60
2018-12-20T22:31:33.644Z,102.60
2018-12-20T22:34:38.258Z,92.53
2018-12-20T22:37:42.892Z,93.50
2018-12-20T22:40:47.505Z,96.07
2018-12-20T22:43:52.210Z,93.53
2018-12-20T22:46:56.795Z,93.13
2018-12-20T22:50:01.557Z,98.03
2018-12-20T22:53:07.249Z,94.97
2018-12-20T22:56:12.079Z,92.53
2018-12-20T22:59:16.621Z,86.70
2018-12-20T23:02:21.307Z,96.80
2018-12-20T23:05:25.929Z,98.60
2018-12-20T23:08:30.554Z,102.90
2018-12-20T23:11:35.084Z,93.73
2018-12-20T23:14:39.709Z,91.10
2018-12-20T23:17:44.373Z,91.57
2018-12-20T23:20:48.965Z,89.17
2018-12-20T23:23:53.570Z,80.20
2018-12-20T23:26:58.324Z,90.33
2018-12-20T23:30:02.998Z,92.27
2018-12-20T23:33:07.675Z,93.70
2018-12-20T23:36:12.352Z,92.27
2018-12-20T23:39:16.948Z,91.53
2018-12-20T23:42:21.742Z,101.87
2018-12-20T23:45:26.476Z,91.43
2018-12-20T23:48:31.042Z,88.23
2018-12-20T23:51:35.769Z,87.13
2018-12-20T23:54:40.437Z,83.17
2018-12-20T23:57:44.969Z,85.30
